sensor_id;sensor_type;location;lat;lon;timestamp;temperature;humidity
8872;DHT22;4472;52.092;9.820;2023-07-22T00:00:32;14.60;99.90
8872;DHT22;4472;52.092;9.820;2023-07-22T00:03:19;14.60;99.90
8872;DHT22;4472;52.092;9.820;2023-07-22T00:06:10;14.50;99.90
8872;DHT22;4472;52.092;9.820;2023-07-22T00:08:58;14.50;99.90
8872;DHT22;4472;52.092;9.820;2023-07-22T00:11:46;14.50;99.90
8872;DHT22;4472;52.092;9.820;2023-07-22T00:14:33;14.50;99.90
8872;DHT22;4472;52.092;9.820;2023-07-22T00:17:20;14.40;99.90
8872;DHT22;4472;52.092;9.820;2023-07-22T00:20:08;14.40;99.90
8872;DHT22;4472;52.092;9.820;2023-07-22T00:22:57;14.30;99.90
8872;DHT22;4472;52.092;9.820;2023-07-22T00:25:46;14.30;99.90
8872;DHT22;4472;52.092;9.820;2023-07-22T00:28:33;14.20;99.90
8872;DHT22;4472;52.092;9.820;2023-07-22T00:31:20;14.10;99.90
8872;DHT22;4472;52.092;9.820;2023-07-22T00:34:07;14.00;99.90
8872;DHT22;4472;52.092;9.820;2023-07-22T00:36:55;14.00;99.90
8872;DHT22;4472;52.092;9.820;2023-07-22T00:39:42;13.90;99.90
8872;DHT22;4472;52.092;9.820;2023-07-22T00:42:30;13.80;99.90
8872;DHT22;4472;52.092;9.820;2023-07-22T00:45:18;13.80;99.90
8872;DHT22;4472;52.092;9.820;2023-07-22T00:48:05;13.80;99.90
8872;DHT22;4472;52.092;9.820;2023-07-22T00:50:53;13.80;99.90
8872;DHT22;4472;52.092;9.820;2023-07-22T00:53:40;13.80;99.90
8872;DHT22;4472;52.092;9.820;2023-07-22T00:56:28;13.80;99.90
8872;DHT22;4472;52.092;9.820;2023-07-22T00:59:16;13.70;99.90
8872;DHT22;4472;52.092;9.820;2023-07-22T01:02:04;13.70;99.90
8872;DHT22;4472;52.092;9.820;2023-07-22T01:04:52;13.60;99.90
8872;DHT22;4472;52.092;9.820;2023-07-22T01:07:39;13.60;99.90
8872;DHT22;4472;52.092;9.820;2023-07-22T01:10:27;13.50;99.90
8872;DHT22;4472;52.092;9.820;2023-07-22T01:13:14;13.50;99.90
8872;DHT22;4472;52.092;9.820;2023-07-22T01:16:03;13.50;99.90
8872;DHT22;4472;52.092;9.820;2023-07-22T01:18:50;13.40;99.90
8872;DHT22;4472;52.092;9.820;2023-07-22T01:21:38;13.40;99.90
8872;DHT22;4472;52.092;9.820;2023-07-22T01:24:28;13.50;99.90
8872;DHT22;4472;52.092;9.820;2023-07-22T01:27:15;13.40;99.90
8872;DHT22;4472;52.092;9.820;2023-07-22T01:30:02;13.40;99.90
8872;DHT22;4472;52.092;9.820;2023-07-22T01:32:50;13.40;99.90
8872;DHT22;4472;52.092;9.820;2023-07-22T01:35:37;13.30;99.90
8872;DHT22;4472;52.092;9.820;2023-07-22T01:38:24;13.30;99.90
8872;DHT22;4472;52.092;9.820;2023-07-22T01:41:13;13.20;99.90
8872;DHT22;4472;52.092;9.820;2023-07-22T01:44:00;13.10;99.90
8872;DHT22;4472;52.092;9.820;2023-07-22T01:46:47;13.00;99.90
8872;DHT22;4472;52.092;9.820;2023-07-22T01:49:34;13.00;99.90
8872;DHT22;4472;52.092;9.820;2023-07-22T01:52:21;12.90;99.90
8872;DHT22;4472;52.092;9.820;2023-07-22T01:55:09;12.90;99.90
8872;DHT22;4472;52.092;9.820;2023-07-22T01:57:58;12.90;99.90
8872;DHT22;4472;52.092;9.820;2023-07-22T02:00:49;12.90;99.90
8872;DHT22;4472;52.092;9.820;2023-07-22T02:03:36;12.90;99.90
8872;DHT22;4472;52.092;9.820;2023-07-22T02:06:24;12.90;99.90
8872;DHT22;4472;52.092;9.820;2023-07-22T02:09:11;12.90;99.90
8872;DHT22;4472;52.092;9.820;2023-07-22T02:11:59;12.90;99.90
8872;DHT22;4472;52.092;9.820;2023-07-22T02:14:48;12.80;99.90
8872;DHT22;4472;52.092;9.820;2023-07-22T02:17:35;12.80;99.90
8872;DHT22;4472;52.092;9.820;2023-07-22T02:20:22;12.70;99.90
8872;DHT22;4472;52.092;9.820;2023-07-22T02:23:09;12.70;99.90
8872;DHT22;4472;52.092;9.820;2023-07-22T02:25:56;12.70;99.90
8872;DHT22;4472;52.092;9.820;2023-07-22T02:28:44;12.70;99.90
8872;DHT22;4472;52.092;9.820;2023-07-22T02:31:33;12.70;99.90
8872;DHT22;4472;52.092;9.820;2023-07-22T02:34:20;12.70;99.90
8872;DHT22;4472;52.092;9.820;2023-07-22T02:37:08;12.70;99.90
8872;DHT22;4472;52.092;9.820;2023-07-22T02:39:55;12.70;99.90
8872;DHT22;4472;52.092;9.820;2023-07-22T02:42:42;12.70;99.90
8872;DHT22;4472;52.092;9.820;2023-07-22T02:45:29;12.70;99.90
8872;DHT22;4472;52.092;9.820;2023-07-22T02:48:18;12.70;99.90
8872;DHT22;4472;52.092;9.820;2023-07-22T02:51:05;12.70;99.90
8872;DHT22;4472;52.092;9.820;2023-07-22T02:53:53;12.70;99.90
8872;DHT22;4472;52.092;9.820;2023-07-22T02:56:40;12.70;99.90
8872;DHT22;4472;52.092;9.820;2023-07-22T02:59:27;12.70;99.90
8872;DHT22;4472;52.092;9.820;2023-07-22T03:02:14;12.70;99.90
8872;DHT22;4472;52.092;9.820;2023-07-22T03:05:03;12.70;99.90
8872;DHT22;4472;52.092;9.820;2023-07-22T03:07:53;12.70;99.90
8872;DHT22;4472;52.092;9.820;2023-07-22T03:10:41;12.60;99.90
8872;DHT22;4472;52.092;9.820;2023-07-22T03:13:29;12.60;99.90
8872;DHT22;4472;52.092;9.820;2023-07-22T03:16:16;12.60;99.90
8872;DHT22;4472;52.092;9.820;2023-07-22T03:19:04;12.60;99.90
8872;DHT22;4472;52.092;9.820;2023-07-22T03:21:52;12.50;99.90
8872;DHT22;4472;52.092;9.820;2023-07-22T03:24:40;12.60;99.90
8872;DHT22;4472;52.092;9.820;2023-07-22T03:27:28;12.60;99.90
8872;DHT22;4472;52.092;9.820;2023-07-22T03:30:17;12.60;99.90
8872;DHT22;4472;52.092;9.820;2023-07-22T03:33:04;12.50;99.90
8872;DHT22;4472;52.092;9.820;2023-07-22T03:35:52;12.50;99.90
8872;DHT22;4472;52.092;9.820;2023-07-22T03:38:40;12.50;99.90
8872;DHT22;4472;52.092;9.820;2023-07-22T03:41:27;12.50;99.90
8872;DHT22;4472;52.092;9.820;2023-07-22T03:44:15;12.50;99.90
8872;DHT22;4472;52.092;9.820;2023-07-22T03:47:02;12.60;99.90
8872;DHT22;4472;52.092;9.820;2023-07-22T03:49:49;12.70;99.90
8872;DHT22;4472;52.092;9.820;2023-07-22T03:52:37;12.80;99.90
8872;DHT22;4472;52.092;9.820;2023-07-22T03:55:25;12.80;99.90
8872;DHT22;4472;52.092;9.820;2023-07-22T03:58:12;12.80;99.90
8872;DHT22;4472;52.092;9.820;2023-07-22T04:01:00;12.90;99.90
8872;DHT22;4472;52.092;9.820;2023-07-22T04:03:47;13.00;99.90
8872;DHT22;4472;52.092;9.820;2023-07-22T04:06:34;13.10;99.90
8872;DHT22;4472;52.092;9.820;2023-07-22T04:09:21;13.20;99.90
8872;DHT22;4472;52.092;9.820;2023-07-22T04:12:10;13.20;99.90
8872;DHT22;4472;52.092;9.820;2023-07-22T04:14:57;13.20;99.90
8872;DHT22;4472;52.092;9.820;2023-07-22T04:17:45;13.30;99.90
8872;DHT22;4472;52.092;9.820;2023-07-22T04:20:32;13.50;99.90
8872;DHT22;4472;52.092;9.820;2023-07-22T04:23:20;13.50;99.90
8872;DHT22;4472;52.092;9.820;2023-07-22T04:26:07;13.60;99.90
8872;DHT22;4472;52.092;9.820;2023-07-22T04:28:55;13.60;99.90
8872;DHT22;4472;52.092;9.820;2023-07-22T04:31:43;13.70;99.90
8872;DHT22;4472;52.092;9.820;2023-07-22T04:34:30;13.70;99.90
8872;DHT22;4472;52.092;9.820;2023-07-22T04:37:17;13.80;99.90
8872;DHT22;4472;52.092;9.820;2023-07-22T04:40:06;14.00;99.90
8872;DHT22;4472;52.092;9.820;2023-07-22T04:42:59;14.00;99.90
8872;DHT22;4472;52.092;9.820;2023-07-22T04:45:49;14.20;99.90
8872;DHT22;4472;52.092;9.820;2023-07-22T04:48:36;14.10;99.90
8872;DHT22;4472;52.092;9.820;2023-07-22T04:51:23;14.20;99.90
8872;DHT22;4472;52.092;9.820;2023-07-22T04:59:46;14.40;99.90
8872;DHT22;4472;52.092;9.820;2023-07-22T05:02:35;14.60;99.90
8872;DHT22;4472;52.092;9.820;2023-07-22T05:05:22;14.60;99.90
8872;DHT22;4472;52.092;9.820;2023-07-22T05:08:09;14.80;99.90
8872;DHT22;4472;52.092;9.820;2023-07-22T05:13:44;14.80;99.90
8872;DHT22;4472;52.092;9.820;2023-07-22T05:16:31;14.90;99.90
8872;DHT22;4472;52.092;9.820;2023-07-22T05:19:20;14.90;99.90
8872;DHT22;4472;52.092;9.820;2023-07-22T05:22:07;15.00;99.90
8872;DHT22;4472;52.092;9.820;2023-07-22T05:24:54;15.20;99.90
8872;DHT22;4472;52.092;9.820;2023-07-22T05:27:42;15.50;99.90
8872;DHT22;4472;52.092;9.820;2023-07-22T05:30:29;15.70;99.90
8872;DHT22;4472;52.092;9.820;2023-07-22T05:36:05;15.90;99.90
8872;DHT22;4472;52.092;9.820;2023-07-22T05:38:53;16.00;99.90
8872;DHT22;4472;52.092;9.820;2023-07-22T05:41:40;16.10;99.90
8872;DHT22;4472;52.092;9.820;2023-07-22T05:44:27;16.20;99.90
8872;DHT22;4472;52.092;9.820;2023-07-22T05:47:14;16.30;99.90
8872;DHT22;4472;52.092;9.820;2023-07-22T05:50:01;16.40;99.90
8872;DHT22;4472;52.092;9.820;2023-07-22T05:52:51;16.50;99.90
8872;DHT22;4472;52.092;9.820;2023-07-22T05:55:38;16.60;99.90
8872;DHT22;4472;52.092;9.820;2023-07-22T05:58:25;16.80;99.90
8872;DHT22;4472;52.092;9.820;2023-07-22T06:01:12;17.00;99.90
8872;DHT22;4472;52.092;9.820;2023-07-22T06:04:00;17.10;99.90
8872;DHT22;4472;52.092;9.820;2023-07-22T06:06:48;17.10;99.90
8872;DHT22;4472;52.092;9.820;2023-07-22T06:09:36;16.90;99.90
8872;DHT22;4472;52.092;9.820;2023-07-22T06:12:23;16.80;99.90
8872;DHT22;4472;52.092;9.820;2023-07-22T06:15:10;16.70;99.90
8872;DHT22;4472;52.092;9.820;2023-07-22T06:17:58;16.60;99.90
8872;DHT22;4472;52.092;9.820;2023-07-22T06:20:45;16.60;99.90
8872;DHT22;4472;52.092;9.820;2023-07-22T06:23:32;16.60;99.90
8872;DHT22;4472;52.092;9.820;2023-07-22T06:26:20;16.50;99.90
8872;DHT22;4472;52.092;9.820;2023-07-22T06:29:08;16.40;99.90
8872;DHT22;4472;52.092;9.820;2023-07-22T06:31:55;16.40;99.90
8872;DHT22;4472;52.092;9.820;2023-07-22T06:34:42;16.30;99.90
8872;DHT22;4472;52.092;9.820;2023-07-22T06:37:30;16.20;99.90
8872;DHT22;4472;52.092;9.820;2023-07-22T06:40:17;16.10;99.90
8872;DHT22;4472;52.092;9.820;2023-07-22T06:43:06;16.00;99.90
8872;DHT22;4472;52.092;9.820;2023-07-22T06:45:53;15.90;99.90
8872;DHT22;4472;52.092;9.820;2023-07-22T06:48:40;15.80;99.90
8872;DHT22;4472;52.092;9.820;2023-07-22T06:51:27;15.70;99.90
8872;DHT22;4472;52.092;9.820;2023-07-22T06:54:15;15.70;99.90
8872;DHT22;4472;52.092;9.820;2023-07-22T06:57:02;15.70;99.90
8872;DHT22;4472;52.092;9.820;2023-07-22T06:59:53;15.70;99.90
8872;DHT22;4472;52.092;9.820;2023-07-22T07:02:41;15.70;99.90
8872;DHT22;4472;52.092;9.820;2023-07-22T07:05:28;15.70;99.90
8872;DHT22;4472;52.092;9.820;2023-07-22T07:08:15;15.80;99.90
8872;DHT22;4472;52.092;9.820;2023-07-22T07:11:02;15.80;99.90
8872;DHT22;4472;52.092;9.820;2023-07-22T07:13:50;15.90;99.90
8872;DHT22;4472;52.092;9.820;2023-07-22T07:16:38;16.00;99.90
8872;DHT22;4472;52.092;9.820;2023-07-22T07:19:26;16.10;99.90
8872;DHT22;4472;52.092;9.820;2023-07-22T07:22:13;16.10;99.90
8872;DHT22;4472;52.092;9.820;2023-07-22T07:25:00;16.10;99.90
8872;DHT22;4472;52.092;9.820;2023-07-22T07:27:48;16.10;99.90
8872;DHT22;4472;52.092;9.820;2023-07-22T07:30:35;16.30;99.90
8872;DHT22;4472;52.092;9.820;2023-07-22T07:33:23;16.30;99.90
8872;DHT22;4472;52.092;9.820;2023-07-22T07:36:11;16.40;99.90
8872;DHT22;4472;52.092;9.820;2023-07-22T07:38:58;16.40;99.90
8872;DHT22;4472;52.092;9.820;2023-07-22T07:41:45;16.40;99.90
8872;DHT22;4472;52.092;9.820;2023-07-22T07:44:32;16.40;99.90
8872;DHT22;4472;52.092;9.820;2023-07-22T07:47:19;16.50;99.90
8872;DHT22;4472;52.092;9.820;2023-07-22T07:50:09;16.50;99.90
8872;DHT22;4472;52.092;9.820;2023-07-22T07:52:56;16.60;99.90
8872;DHT22;4472;52.092;9.820;2023-07-22T07:55:43;16.70;99.90
8872;DHT22;4472;52.092;9.820;2023-07-22T07:58:30;16.90;99.90
8872;DHT22;4472;52.092;9.820;2023-07-22T08:01:17;16.90;99.90
8872;DHT22;4472;52.092;9.820;2023-07-22T08:04:04;16.90;99.90
8872;DHT22;4472;52.092;9.820;2023-07-22T08:06:53;16.90;99.90
8872;DHT22;4472;52.092;9.820;2023-07-22T08:09:40;17.00;99.90
8872;DHT22;4472;52.092;9.820;2023-07-22T08:12:27;17.10;99.90
8872;DHT22;4472;52.092;9.820;2023-07-22T08:15:14;17.30;99.90
8872;DHT22;4472;52.092;9.820;2023-07-22T08:18:01;17.40;99.90
8872;DHT22;4472;52.092;9.820;2023-07-22T08:20:50;17.60;99.90
8872;DHT22;4472;52.092;9.820;2023-07-22T08:23:38;17.70;99.90
8872;DHT22;4472;52.092;9.820;2023-07-22T08:26:25;17.60;99.90
8872;DHT22;4472;52.092;9.820;2023-07-22T08:29:13;17.60;99.90
8872;DHT22;4472;52.092;9.820;2023-07-22T08:32:00;17.70;99.90
8872;DHT22;4472;52.092;9.820;2023-07-22T08:37:16;17.90;99.90
8872;DHT22;4472;52.092;9.820;2023-07-22T08:40:06;17.90;99.90
8872;DHT22;4472;52.092;9.820;2023-07-22T08:42:54;18.00;99.90
8872;DHT22;4472;52.092;9.820;2023-07-22T08:45:43;18.10;99.90
8872;DHT22;4472;52.092;9.820;2023-07-22T08:48:31;18.30;99.90
8872;DHT22;4472;52.092;9.820;2023-07-22T08:51:19;18.40;99.90
8872;DHT22;4472;52.092;9.820;2023-07-22T08:54:09;18.60;99.90
8872;DHT22;4472;52.092;9.820;2023-07-22T08:56:58;18.80;99.90
8872;DHT22;4472;52.092;9.820;2023-07-22T08:59:46;18.80;99.90
8872;DHT22;4472;52.092;9.820;2023-07-22T09:02:34;18.90;99.90
8872;DHT22;4472;52.092;9.820;2023-07-22T09:05:21;19.10;99.90
8872;DHT22;4472;52.092;9.820;2023-07-22T09:08:09;19.30;99.90
8872;DHT22;4472;52.092;9.820;2023-07-22T09:10:56;19.50;99.90
8872;DHT22;4472;52.092;9.820;2023-07-22T09:13:46;19.80;99.90
8872;DHT22;4472;52.092;9.820;2023-07-22T09:16:35;20.10;99.90
8872;DHT22;4472;52.092;9.820;2023-07-22T09:19:23;20.10;99.90
8872;DHT22;4472;52.092;9.820;2023-07-22T09:22:10;20.00;99.90
8872;DHT22;4472;52.092;9.820;2023-07-22T09:25:12;20.10;99.90
8872;DHT22;4472;52.092;9.820;2023-07-22T09:28:01;20.20;99.90
8872;DHT22;4472;52.092;9.820;2023-07-22T09:31:01;20.20;99.90
8872;DHT22;4472;52.092;9.820;2023-07-22T09:33:48;20.10;99.90
8872;DHT22;4472;52.092;9.820;2023-07-22T09:36:49;20.00;99.90
8872;DHT22;4472;52.092;9.820;2023-07-22T09:39:37;20.20;99.90
8872;DHT22;4472;52.092;9.820;2023-07-22T09:42:24;20.50;99.90
8872;DHT22;4472;52.092;9.820;2023-07-22T09:45:12;20.70;99.90
8872;DHT22;4472;52.092;9.820;2023-07-22T09:48:00;20.90;99.50
8872;DHT22;4472;52.092;9.820;2023-07-22T09:50:56;20.90;99.40
8872;DHT22;4472;52.092;9.820;2023-07-22T09:53:46;20.70;97.90
8872;DHT22;4472;52.092;9.820;2023-07-22T09:56:43;20.70;99.80
8872;DHT22;4472;52.092;9.820;2023-07-22T09:59:31;20.70;99.90
8872;DHT22;4472;52.092;9.820;2023-07-22T10:02:20;20.80;99.90
8872;DHT22;4472;52.092;9.820;2023-07-22T10:05:13;21.00;99.90
8872;DHT22;4472;52.092;9.820;2023-07-22T10:08:02;21.30;99.90
8872;DHT22;4472;52.092;9.820;2023-07-22T10:10:53;21.50;99.30
8872;DHT22;4472;52.092;9.820;2023-07-22T10:13:40;21.50;99.20
8872;DHT22;4472;52.092;9.820;2023-07-22T10:16:28;21.30;98.30
8872;DHT22;4472;52.092;9.820;2023-07-22T10:19:16;21.30;99.30
8872;DHT22;4472;52.092;9.820;2023-07-22T10:22:06;21.30;97.80
8872;DHT22;4472;52.092;9.820;2023-07-22T10:24:56;21.30;96.70
8872;DHT22;4472;52.092;9.820;2023-07-22T10:27:44;21.10;96.40
8872;DHT22;4472;52.092;9.820;2023-07-22T10:30:32;21.10;96.40
8872;DHT22;4472;52.092;9.820;2023-07-22T10:33:20;21.00;96.70
8872;DHT22;4472;52.092;9.820;2023-07-22T10:36:09;21.10;97.30
8872;DHT22;4472;52.092;9.820;2023-07-22T10:38:59;21.40;96.50
8872;DHT22;4472;52.092;9.820;2023-07-22T10:41:47;21.40;96.10
8872;DHT22;4472;52.092;9.820;2023-07-22T10:44:36;21.40;96.30
8872;DHT22;4472;52.092;9.820;2023-07-22T10:47:34;21.40;96.50
8872;DHT22;4472;52.092;9.820;2023-07-22T10:50:22;21.50;96.80
8872;DHT22;4472;52.092;9.820;2023-07-22T10:53:10;21.50;96.50
8872;DHT22;4472;52.092;9.820;2023-07-22T10:56:20;21.60;96.10
8872;DHT22;4472;52.092;9.820;2023-07-22T10:59:10;21.50;95.80
8872;DHT22;4472;52.092;9.820;2023-07-22T11:01:58;21.60;96.20
8872;DHT22;4472;52.092;9.820;2023-07-22T11:04:45;21.50;95.80
8872;DHT22;4472;52.092;9.820;2023-07-22T11:07:33;21.60;96.80
8872;DHT22;4472;52.092;9.820;2023-07-22T11:10:21;21.70;96.10
8872;DHT22;4472;52.092;9.820;2023-07-22T11:13:10;21.70;95.20
8872;DHT22;4472;52.092;9.820;2023-07-22T11:16:00;21.80;95.00
8872;DHT22;4472;52.092;9.820;2023-07-22T11:18:48;22.00;94.70
8872;DHT22;4472;52.092;9.820;2023-07-22T11:21:36;22.00;94.00
8872;DHT22;4472;52.092;9.820;2023-07-22T11:24:24;22.00;93.30
8872;DHT22;4472;52.092;9.820;2023-07-22T11:27:12;22.00;93.20
8872;DHT22;4472;52.092;9.820;2023-07-22T11:30:02;22.20;94.30
8872;DHT22;4472;52.092;9.820;2023-07-22T11:32:50;22.30;94.40
8872;DHT22;4472;52.092;9.820;2023-07-22T11:35:37;22.30;92.60
8872;DHT22;4472;52.092;9.820;2023-07-22T11:38:29;22.20;91.60
8872;DHT22;4472;52.092;9.820;2023-07-22T11:41:17;22.20;92.70
8872;DHT22;4472;52.092;9.820;2023-07-22T11:44:05;22.10;91.40
8872;DHT22;4472;52.092;9.820;2023-07-22T11:46:57;22.00;91.70
8872;DHT22;4472;52.092;9.820;2023-07-22T11:49:47;22.00;91.90
8872;DHT22;4472;52.092;9.820;2023-07-22T11:52:34;22.10;91.60
8872;DHT22;4472;52.092;9.820;2023-07-22T11:55:23;22.10;92.30
8872;DHT22;4472;52.092;9.820;2023-07-22T11:58:10;22.30;92.20
8872;DHT22;4472;52.092;9.820;2023-07-22T12:01:05;22.50;92.00
8872;DHT22;4472;52.092;9.820;2023-07-22T12:03:56;22.70;91.20
8872;DHT22;4472;52.092;9.820;2023-07-22T12:06:43;22.90;91.40
8872;DHT22;4472;52.092;9.820;2023-07-22T12:09:31;22.90;91.10
8872;DHT22;4472;52.092;9.820;2023-07-22T12:12:18;23.10;91.90
8872;DHT22;4472;52.092;9.820;2023-07-22T12:15:10;23.30;92.00
8872;DHT22;4472;52.092;9.820;2023-07-22T12:18:01;23.30;90.70
8872;DHT22;4472;52.092;9.820;2023-07-22T12:20:50;23.30;91.00
8872;DHT22;4472;52.092;9.820;2023-07-22T12:23:38;23.20;90.40
8872;DHT22;4472;52.092;9.820;2023-07-22T12:26:25;23.00;89.70
8872;DHT22;4472;52.092;9.820;2023-07-22T12:29:13;22.80;89.80
8872;DHT22;4472;52.092;9.820;2023-07-22T12:32:00;22.40;90.10
8872;DHT22;4472;52.092;9.820;2023-07-22T12:34:47;22.20;90.60
8872;DHT22;4472;52.092;9.820;2023-07-22T12:37:36;22.30;91.60
8872;DHT22;4472;52.092;9.820;2023-07-22T12:40:23;22.60;92.00
8872;DHT22;4472;52.092;9.820;2023-07-22T12:43:10;22.70;90.20
8872;DHT22;4472;52.092;9.820;2023-07-22T12:45:57;22.70;90.70
8872;DHT22;4472;52.092;9.820;2023-07-22T12:48:45;22.70;90.50
8872;DHT22;4472;52.092;9.820;2023-07-22T12:51:32;22.80;89.40
8872;DHT22;4472;52.092;9.820;2023-07-22T12:54:21;22.80;90.60
8872;DHT22;4472;52.092;9.820;2023-07-22T12:57:08;22.90;90.00
8872;DHT22;4472;52.092;9.820;2023-07-22T12:59:55;22.90;90.10
8872;DHT22;4472;52.092;9.820;2023-07-22T13:02:43;22.90;91.20
8872;DHT22;4472;52.092;9.820;2023-07-22T13:05:30;22.10;90.30
8872;DHT22;4472;52.092;9.820;2023-07-22T13:08:17;22.80;90.10
8872;DHT22;4472;52.092;9.820;2023-07-22T13:11:06;22.80;90.80
8872;DHT22;4472;52.092;9.820;2023-07-22T13:13:53;23.60;90.60
8872;DHT22;4472;52.092;9.820;2023-07-22T13:16:40;22.90;90.60
8872;DHT22;4472;52.092;9.820;2023-07-22T13:19:28;23.00;90.50
8872;DHT22;4472;52.092;9.820;2023-07-22T13:22:15;23.20;90.10
8872;DHT22;4472;52.092;9.820;2023-07-22T13:25:02;23.00;87.30
8872;DHT22;4472;52.092;9.820;2023-07-22T13:27:51;22.90;89.70
8872;DHT22;4472;52.092;9.820;2023-07-22T13:30:38;22.90;89.10
8872;DHT22;4472;52.092;9.820;2023-07-22T13:33:25;22.90;90.00
8872;DHT22;4472;52.092;9.820;2023-07-22T13:36:13;23.00;89.60
8872;DHT22;4472;52.092;9.820;2023-07-22T13:39:00;23.00;87.40
8872;DHT22;4472;52.092;9.820;2023-07-22T13:41:47;23.00;87.90
8872;DHT22;4472;52.092;9.820;2023-07-22T13:44:37;22.80;88.30
8872;DHT22;4472;52.092;9.820;2023-07-22T13:47:26;22.80;89.30
8872;DHT22;4472;52.092;9.820;2023-07-22T13:50:14;22.80;90.60
8872;DHT22;4472;52.092;9.820;2023-07-22T13:53:01;22.90;90.50
8872;DHT22;4472;52.092;9.820;2023-07-22T13:55:48;22.90;90.60
8872;DHT22;4472;52.092;9.820;2023-07-22T13:58:35;23.20;91.40
8872;DHT22;4472;52.092;9.820;2023-07-22T14:01:24;23.40;90.30
8872;DHT22;4472;52.092;9.820;2023-07-22T14:04:11;23.40;89.70
8872;DHT22;4472;52.092;9.820;2023-07-22T14:06:58;23.40;90.30
8872;DHT22;4472;52.092;9.820;2023-07-22T14:09:45;23.50;90.50
8872;DHT22;4472;52.092;9.820;2023-07-22T14:12:32;23.50;90.30
8872;DHT22;4472;52.092;9.820;2023-07-22T14:15:20;23.50;90.20
8872;DHT22;4472;52.092;9.820;2023-07-22T14:18:08;23.60;90.30
8872;DHT22;4472;52.092;9.820;2023-07-22T14:20:55;23.60;89.50
8872;DHT22;4472;52.092;9.820;2023-07-22T14:23:43;23.70;89.80
8872;DHT22;4472;52.092;9.820;2023-07-22T14:26:30;23.80;89.20
8872;DHT22;4472;52.092;9.820;2023-07-22T14:29:17;23.90;86.10
8872;DHT22;4472;52.092;9.820;2023-07-22T14:32:05;23.90;85.70
8872;DHT22;4472;52.092;9.820;2023-07-22T14:34:53;24.00;85.50
8872;DHT22;4472;52.092;9.820;2023-07-22T14:37:41;23.70;86.30
8872;DHT22;4472;52.092;9.820;2023-07-22T14:40:29;24.20;84.40
8872;DHT22;4472;52.092;9.820;2023-07-22T14:43:16;24.00;82.40
8872;DHT22;4472;52.092;9.820;2023-07-22T14:46:03;23.90;83.30
8872;DHT22;4472;52.092;9.820;2023-07-22T14:48:50;24.00;83.60
8872;DHT22;4472;52.092;9.820;2023-07-22T14:51:39;24.20;85.90
8872;DHT22;4472;52.092;9.820;2023-07-22T14:54:28;24.50;82.70
8872;DHT22;4472;52.092;9.820;2023-07-22T14:57:16;24.60;84.20
8872;DHT22;4472;52.092;9.820;2023-07-22T15:00:04;24.60;81.90
8872;DHT22;4472;52.092;9.820;2023-07-22T15:02:51;24.40;82.70
8872;DHT22;4472;52.092;9.820;2023-07-22T15:05:38;24.40;85.20
8872;DHT22;4472;52.092;9.820;2023-07-22T15:08:27;24.60;86.00
8872;DHT22;4472;52.092;9.820;2023-07-22T15:11:14;24.70;83.00
8872;DHT22;4472;52.092;9.820;2023-07-22T15:14:01;24.70;82.00
8872;DHT22;4472;52.092;9.820;2023-07-22T15:16:48;24.50;81.00
8872;DHT22;4472;52.092;9.820;2023-07-22T15:19:35;24.50;83.00
8872;DHT22;4472;52.092;9.820;2023-07-22T15:22:23;24.50;83.00
8872;DHT22;4472;52.092;9.820;2023-07-22T15:25:12;24.50;81.70
8872;DHT22;4472;52.092;9.820;2023-07-22T15:27:59;24.50;82.30
8872;DHT22;4472;52.092;9.820;2023-07-22T15:30:47;24.60;81.20
8872;DHT22;4472;52.092;9.820;2023-07-22T15:33:34;24.50;79.20
8872;DHT22;4472;52.092;9.820;2023-07-22T15:36:23;24.40;80.50
8872;DHT22;4472;52.092;9.820;2023-07-22T15:39:10;24.30;79.80
8872;DHT22;4472;52.092;9.820;2023-07-22T15:41:59;24.10;79.30
8872;DHT22;4472;52.092;9.820;2023-07-22T15:44:46;24.20;81.40
8872;DHT22;4472;52.092;9.820;2023-07-22T15:47:33;24.30;82.00
8872;DHT22;4472;52.092;9.820;2023-07-22T15:50:20;24.50;83.10
8872;DHT22;4472;52.092;9.820;2023-07-22T15:53:08;24.70;81.50
8872;DHT22;4472;52.092;9.820;2023-07-22T15:55:55;24.80;82.50
8872;DHT22;4472;52.092;9.820;2023-07-22T15:58:43;24.70;80.50
8872;DHT22;4472;52.092;9.820;2023-07-22T16:01:30;24.70;80.90
8872;DHT22;4472;52.092;9.820;2023-07-22T16:04:18;24.70;81.30
8872;DHT22;4472;52.092;9.820;2023-07-22T16:07:07;24.70;80.50
8872;DHT22;4472;52.092;9.820;2023-07-22T16:09:54;24.80;81.20
8872;DHT22;4472;52.092;9.820;2023-07-22T16:12:57;24.80;80.60
8872;DHT22;4472;52.092;9.820;2023-07-22T16:15:44;24.60;78.10
8872;DHT22;4472;52.092;9.820;2023-07-22T16:18:32;24.40;77.10
8872;DHT22;4472;52.092;9.820;2023-07-22T16:21:19;24.30;76.40
8872;DHT22;4472;52.092;9.820;2023-07-22T16:24:06;24.00;76.80
8872;DHT22;4472;52.092;9.820;2023-07-22T16:26:53;23.90;77.10
8872;DHT22;4472;52.092;9.820;2023-07-22T16:29:41;23.80;77.30
8872;DHT22;4472;52.092;9.820;2023-07-22T16:32:29;23.90;79.50
8872;DHT22;4472;52.092;9.820;2023-07-22T16:35:16;24.00;79.30
8872;DHT22;4472;52.092;9.820;2023-07-22T16:38:03;23.90;78.00
8872;DHT22;4472;52.092;9.820;2023-07-22T16:40:50;23.80;76.70
8872;DHT22;4472;52.092;9.820;2023-07-22T16:43:37;23.60;77.00
8872;DHT22;4472;52.092;9.820;2023-07-22T16:46:26;23.50;77.40
8872;DHT22;4472;52.092;9.820;2023-07-22T16:49:13;23.40;77.90
8872;DHT22;4472;52.092;9.820;2023-07-22T16:52:01;23.30;78.70
8872;DHT22;4472;52.092;9.820;2023-07-22T16:54:48;23.30;78.40
8872;DHT22;4472;52.092;9.820;2023-07-22T16:57:36;23.50;79.10
8872;DHT22;4472;52.092;9.820;2023-07-22T17:00:25;23.60;76.50
8872;DHT22;4472;52.092;9.820;2023-07-22T17:03:13;23.70;76.80
8872;DHT22;4472;52.092;9.820;2023-07-22T17:06:01;23.70;78.00
8872;DHT22;4472;52.092;9.820;2023-07-22T17:08:48;23.70;77.80
8872;DHT22;4472;52.092;9.820;2023-07-22T17:11:35;23.70;77.60
8872;DHT22;4472;52.092;9.820;2023-07-22T17:14:22;23.60;77.30
8872;DHT22;4472;52.092;9.820;2023-07-22T17:17:09;23.50;78.30
8872;DHT22;4472;52.092;9.820;2023-07-22T17:19:58;23.50;77.50
8872;DHT22;4472;52.092;9.820;2023-07-22T17:22:45;23.30;75.80
8872;DHT22;4472;52.092;9.820;2023-07-22T17:25:32;23.30;77.60
8872;DHT22;4472;52.092;9.820;2023-07-22T17:28:19;23.20;78.30
8872;DHT22;4472;52.092;9.820;2023-07-22T17:31:06;23.20;78.20
8872;DHT22;4472;52.092;9.820;2023-07-22T17:33:53;23.10;80.50
8872;DHT22;4472;52.092;9.820;2023-07-22T17:36:42;23.10;79.70
8872;DHT22;4472;52.092;9.820;2023-07-22T17:39:30;23.10;80.50
8872;DHT22;4472;52.092;9.820;2023-07-22T17:42:17;23.00;78.70
8872;DHT22;4472;52.092;9.820;2023-07-22T17:45:05;22.80;78.50
8872;DHT22;4472;52.092;9.820;2023-07-22T17:47:52;22.70;78.60
8872;DHT22;4472;52.092;9.820;2023-07-22T17:50:40;22.60;78.50
8872;DHT22;4472;52.092;9.820;2023-07-22T17:53:28;22.60;78.30
8872;DHT22;4472;52.092;9.820;2023-07-22T17:56:15;22.60;79.40
8872;DHT22;4472;52.092;9.820;2023-07-22T17:59:02;22.60;81.20
8872;DHT22;4472;52.092;9.820;2023-07-22T18:01:49;22.50;81.50
8872;DHT22;4472;52.092;9.820;2023-07-22T18:04:36;22.50;82.70
8872;DHT22;4472;52.092;9.820;2023-07-22T18:07:24;22.40;84.80
8872;DHT22;4472;52.092;9.820;2023-07-22T18:10:12;22.40;84.80
8872;DHT22;4472;52.092;9.820;2023-07-22T18:13:00;22.30;83.50
8872;DHT22;4472;52.092;9.820;2023-07-22T18:15:47;22.20;84.40
8872;DHT22;4472;52.092;9.820;2023-07-22T18:18:34;22.20;86.10
8872;DHT22;4472;52.092;9.820;2023-07-22T18:21:21;22.10;85.70
8872;DHT22;4472;52.092;9.820;2023-07-22T18:24:08;22.10;87.60
8872;DHT22;4472;52.092;9.820;2023-07-22T18:26:57;22.10;88.60
8872;DHT22;4472;52.092;9.820;2023-07-22T18:29:44;22.00;88.30